sensor_id;sensor_type;location;lat;lon;timestamp;temperature;humidity
13850;DHT22;6995;52.618;13.488;2023-04-24T00:01:13;11.40;1.00
13850;DHT22;6995;52.618;13.488;2023-04-24T00:03:40;11.40;1.00
13850;DHT22;6995;52.618;13.488;2023-04-24T00:06:06;11.40;1.00
13850;DHT22;6995;52.618;13.488;2023-04-24T00:08:34;11.40;1.00
13850;DHT22;6995;52.618;13.488;2023-04-24T00:11:00;11.40;1.00
13850;DHT22;6995;52.618;13.488;2023-04-24T00:13:25;11.40;1.00
13850;DHT22;6995;52.618;13.488;2023-04-24T00:15:54;11.40;1.00
13850;DHT22;6995;52.618;13.488;2023-04-24T00:18:20;11.40;1.00
13850;DHT22;6995;52.618;13.488;2023-04-24T00:20:45;11.40;1.00
13850;DHT22;6995;52.618;13.488;2023-04-24T00:23:12;11.40;1.00
13850;DHT22;6995;52.618;13.488;2023-04-24T00:25:37;11.40;1.00
13850;DHT22;6995;52.618;13.488;2023-04-24T00:28:03;11.30;1.00
13850;DHT22;6995;52.618;13.488;2023-04-24T00:30:29;11.30;1.00
13850;DHT22;6995;52.618;13.488;2023-04-24T00:32:54;11.30;1.00
13850;DHT22;6995;52.618;13.488;2023-04-24T00:35:20;11.30;1.00
13850;DHT22;6995;52.618;13.488;2023-04-24T00:37:46;11.30;1.00
13850;DHT22;6995;52.618;13.488;2023-04-24T00:40:12;11.40;1.00
13850;DHT22;6995;52.618;13.488;2023-04-24T00:42:38;11.30;1.00
13850;DHT22;6995;52.618;13.488;2023-04-24T00:45:04;11.30;1.00
13850;DHT22;6995;52.618;13.488;2023-04-24T00:47:32;11.30;1.00
13850;DHT22;6995;52.618;13.488;2023-04-24T00:49:58;11.30;1.00
13850;DHT22;6995;52.618;13.488;2023-04-24T00:52:25;11.30;1.00
13850;DHT22;6995;52.618;13.488;2023-04-24T00:54:51;11.30;1.00
13850;DHT22;6995;52.618;13.488;2023-04-24T00:57:17;11.30;1.00
13850;DHT22;6995;52.618;13.488;2023-04-24T00:59:43;11.30;1.00
13850;DHT22;6995;52.618;13.488;2023-04-24T01:02:10;11.20;1.00
13850;DHT22;6995;52.618;13.488;2023-04-24T01:04:36;11.30;1.00
13850;DHT22;6995;52.618;13.488;2023-04-24T01:07:02;11.30;1.00
13850;DHT22;6995;52.618;13.488;2023-04-24T01:09:28;11.30;1.00
13850;DHT22;6995;52.618;13.488;2023-04-24T01:11:54;11.30;1.00
13850;DHT22;6995;52.618;13.488;2023-04-24T01:14:20;11.30;1.00
13850;DHT22;6995;52.618;13.488;2023-04-24T01:16:46;11.30;1.00
13850;DHT22;6995;52.618;13.488;2023-04-24T01:19:13;11.20;1.00
13850;DHT22;6995;52.618;13.488;2023-04-24T01:21:41;11.30;1.00
13850;DHT22;6995;52.618;13.488;2023-04-24T01:24:08;11.30;1.00
13850;DHT22;6995;52.618;13.488;2023-04-24T01:26:34;11.40;1.00
13850;DHT22;6995;52.618;13.488;2023-04-24T01:28:59;11.30;1.00
13850;DHT22;6995;52.618;13.488;2023-04-24T01:31:25;11.30;1.00
13850;DHT22;6995;52.618;13.488;2023-04-24T01:33:51;11.30;1.00
13850;DHT22;6995;52.618;13.488;2023-04-24T01:36:18;11.40;1.00
13850;DHT22;6995;52.618;13.488;2023-04-24T01:38:44;11.40;1.00
13850;DHT22;6995;52.618;13.488;2023-04-24T01:41:10;11.40;1.00
13850;DHT22;6995;52.618;13.488;2023-04-24T01:43:36;11.40;1.00
13850;DHT22;6995;52.618;13.488;2023-04-24T01:46:01;11.50;1.00
13850;DHT22;6995;52.618;13.488;2023-04-24T01:48:27;11.50;1.00
13850;DHT22;6995;52.618;13.488;2023-04-24T01:50:53;11.50;1.00
13850;DHT22;6995;52.618;13.488;2023-04-24T01:53:19;11.50;1.00
13850;DHT22;6995;52.618;13.488;2023-04-24T01:55:45;11.60;1.00
13850;DHT22;6995;52.618;13.488;2023-04-24T01:58:11;11.60;1.00
13850;DHT22;6995;52.618;13.488;2023-04-24T02:00:37;11.60;1.00
13850;DHT22;6995;52.618;13.488;2023-04-24T02:03:02;11.60;1.00
13850;DHT22;6995;52.618;13.488;2023-04-24T02:05:28;11.70;1.00
13850;DHT22;6995;52.618;13.488;2023-04-24T02:07:54;11.70;1.00
13850;DHT22;6995;52.618;13.488;2023-04-24T02:10:19;11.70;1.00
13850;DHT22;6995;52.618;13.488;2023-04-24T02:12:45;11.70;1.00
13850;DHT22;6995;52.618;13.488;2023-04-24T02:15:11;11.70;1.00
13850;DHT22;6995;52.618;13.488;2023-04-24T02:17:37;11.70;1.00
13850;DHT22;6995;52.618;13.488;2023-04-24T02:20:03;11.70;1.00
13850;DHT22;6995;52.618;13.488;2023-04-24T02:22:30;11.60;1.00
13850;DHT22;6995;52.618;13.488;2023-04-24T02:24:55;11.50;1.00
13850;DHT22;6995;52.618;13.488;2023-04-24T02:27:21;11.60;1.00
13850;DHT22;6995;52.618;13.488;2023-04-24T02:29:47;11.50;1.00
13850;DHT22;6995;52.618;13.488;2023-04-24T02:32:12;11.50;1.00
13850;DHT22;6995;52.618;13.488;2023-04-24T02:34:40;11.50;1.00
13850;DHT22;6995;52.618;13.488;2023-04-24T02:37:06;11.50;1.00
13850;DHT22;6995;52.618;13.488;2023-04-24T02:39:31;11.50;1.00
13850;DHT22;6995;52.618;13.488;2023-04-24T02:41:57;11.50;1.00
13850;DHT22;6995;52.618;13.488;2023-04-24T02:44:23;11.50;1.00
13850;DHT22;6995;52.618;13.488;2023-04-24T02:46:49;11.60;1.00
13850;DHT22;6995;52.618;13.488;2023-04-24T02:49:14;11.60;1.00
13850;DHT22;6995;52.618;13.488;2023-04-24T02:51:40;11.60;1.00
13850;DHT22;6995;52.618;13.488;2023-04-24T02:54:07;11.70;1.00
13850;DHT22;6995;52.618;13.488;2023-04-24T02:56:33;11.70;1.00
13850;DHT22;6995;52.618;13.488;2023-04-24T02:58:59;11.70;1.00
13850;DHT22;6995;52.618;13.488;2023-04-24T03:01:25;11.70;1.00
13850;DHT22;6995;52.618;13.488;2023-04-24T03:03:50;11.60;1.00
13850;DHT22;6995;52.618;13.488;2023-04-24T03:06:16;11.60;1.00
13850;DHT22;6995;52.618;13.488;2023-04-24T03:08:41;11.70;1.00
13850;DHT22;6995;52.618;13.488;2023-04-24T03:11:07;11.70;1.00
13850;DHT22;6995;52.618;13.488;2023-04-24T03:13:32;11.70;1.00
13850;DHT22;6995;52.618;13.488;2023-04-24T03:15:58;11.70;1.00
13850;DHT22;6995;52.618;13.488;2023-04-24T03:18:24;11.70;1.00
13850;DHT22;6995;52.618;13.488;2023-04-24T03:20:50;11.70;1.00
13850;DHT22;6995;52.618;13.488;2023-04-24T03:23:16;11.70;1.00
13850;DHT22;6995;52.618;13.488;2023-04-24T03:25:42;11.70;1.00
13850;DHT22;6995;52.618;13.488;2023-04-24T03:28:08;11.80;1.00
13850;DHT22;6995;52.618;13.488;2023-04-24T03:30:33;11.90;1.00
13850;DHT22;6995;52.618;13.488;2023-04-24T03:33:00;11.80;1.00
13850;DHT22;6995;52.618;13.488;2023-04-24T03:35:26;11.90;1.00
13850;DHT22;6995;52.618;13.488;2023-04-24T03:37:51;11.90;1.00
13850;DHT22;6995;52.618;13.488;2023-04-24T03:40:17;12.00;1.00
13850;DHT22;6995;52.618;13.488;2023-04-24T03:42:45;12.00;1.00
13850;DHT22;6995;52.618;13.488;2023-04-24T03:45:11;12.00;1.00
13850;DHT22;6995;52.618;13.488;2023-04-24T03:47:37;12.10;1.00
13850;DHT22;6995;52.618;13.488;2023-04-24T03:50:02;12.10;1.00
13850;DHT22;6995;52.618;13.488;2023-04-24T03:52:28;12.10;1.00
13850;DHT22;6995;52.618;13.488;2023-04-24T03:54:53;12.20;1.00
13850;DHT22;6995;52.618;13.488;2023-04-24T03:57:20;12.20;1.00
13850;DHT22;6995;52.618;13.488;2023-04-24T03:59:46;12.30;1.00
13850;DHT22;6995;52.618;13.488;2023-04-24T04:02:11;12.30;1.00
13850;DHT22;6995;52.618;13.488;2023-04-24T04:04:37;12.30;1.00
13850;DHT22;6995;52.618;13.488;2023-04-24T04:07:03;12.30;1.00
13850;DHT22;6995;52.618;13.488;2023-04-24T04:09:30;12.40;1.00
13850;DHT22;6995;52.618;13.488;2023-04-24T04:11:56;12.40;1.00
13850;DHT22;6995;52.618;13.488;2023-04-24T04:14:22;12.40;1.00
13850;DHT22;6995;52.618;13.488;2023-04-24T04:16:48;12.40;1.00
13850;DHT22;6995;52.618;13.488;2023-04-24T04:19:14;12.50;1.00
13850;DHT22;6995;52.618;13.488;2023-04-24T04:21:40;12.40;1.00
13850;DHT22;6995;52.618;13.488;2023-04-24T04:24:06;12.50;1.00
13850;DHT22;6995;52.618;13.488;2023-04-24T04:26:32;12.50;1.00
13850;DHT22;6995;52.618;13.488;2023-04-24T04:28:59;12.50;1.00
13850;DHT22;6995;52.618;13.488;2023-04-24T04:31:26;12.50;1.00
13850;DHT22;6995;52.618;13.488;2023-04-24T04:33:51;12.60;1.00
13850;DHT22;6995;52.618;13.488;2023-04-24T04:36:17;12.60;1.00
13850;DHT22;6995;52.618;13.488;2023-04-24T04:38:43;12.70;1.00
13850;DHT22;6995;52.618;13.488;2023-04-24T04:41:10;12.70;1.00
13850;DHT22;6995;52.618;13.488;2023-04-24T04:43:36;12.60;1.00
13850;DHT22;6995;52.618;13.488;2023-04-24T04:46:01;12.70;1.00
13850;DHT22;6995;52.618;13.488;2023-04-24T04:48:28;12.70;1.00
13850;DHT22;6995;52.618;13.488;2023-04-24T04:50:57;12.70;1.00
13850;DHT22;6995;52.618;13.488;2023-04-24T04:53:22;12.80;1.00
13850;DHT22;6995;52.618;13.488;2023-04-24T04:55:48;12.90;1.00
13850;DHT22;6995;52.618;13.488;2023-04-24T04:58:14;12.90;99.90
13850;DHT22;6995;52.618;13.488;2023-04-24T05:00:39;12.90;1.00
13850;DHT22;6995;52.618;13.488;2023-04-24T05:03:05;13.00;99.90
13850;DHT22;6995;52.618;13.488;2023-04-24T05:05:31;13.10;1.00
13850;DHT22;6995;52.618;13.488;2023-04-24T05:07:57;13.20;99.90
13850;DHT22;6995;52.618;13.488;2023-04-24T05:10:22;13.30;99.90
13850;DHT22;6995;52.618;13.488;2023-04-24T05:12:48;13.30;99.90
13850;DHT22;6995;52.618;13.488;2023-04-24T05:15:14;13.40;99.90
13850;DHT22;6995;52.618;13.488;2023-04-24T05:17:40;13.40;99.90
13850;DHT22;6995;52.618;13.488;2023-04-24T05:20:06;13.40;99.90
13850;DHT22;6995;52.618;13.488;2023-04-24T05:22:32;13.50;99.90
13850;DHT22;6995;52.618;13.488;2023-04-24T05:24:58;13.50;99.90
13850;DHT22;6995;52.618;13.488;2023-04-24T05:27:24;13.50;99.90
13850;DHT22;6995;52.618;13.488;2023-04-24T05:29:50;13.50;99.90
13850;DHT22;6995;52.618;13.488;2023-04-24T05:32:16;13.50;99.90
13850;DHT22;6995;52.618;13.488;2023-04-24T05:34:42;13.50;99.90
13850;DHT22;6995;52.618;13.488;2023-04-24T05:37:07;13.60;99.90
13850;DHT22;6995;52.618;13.488;2023-04-24T05:39:35;13.60;99.90
13850;DHT22;6995;52.618;13.488;2023-04-24T05:42:01;13.70;99.90
13850;DHT22;6995;52.618;13.488;2023-04-24T05:44:27;13.80;99.90
13850;DHT22;6995;52.618;13.488;2023-04-24T05:46:53;13.80;99.90
13850;DHT22;6995;52.618;13.488;2023-04-24T05:49:20;13.80;99.90
13850;DHT22;6995;52.618;13.488;2023-04-24T05:51:46;13.80;99.90
13850;DHT22;6995;52.618;13.488;2023-04-24T05:54:11;13.80;99.90
13850;DHT22;6995;52.618;13.488;2023-04-24T05:56:37;13.90;99.90
13850;DHT22;6995;52.618;13.488;2023-04-24T05:59:03;13.90;99.90
13850;DHT22;6995;52.618;13.488;2023-04-24T06:01:29;13.80;99.90
13850;DHT22;6995;52.618;13.488;2023-04-24T06:03:55;13.90;99.90
13850;DHT22;6995;52.618;13.488;2023-04-24T06:06:20;14.00;99.90
13850;DHT22;6995;52.618;13.488;2023-04-24T06:08:46;13.90;99.90
13850;DHT22;6995;52.618;13.488;2023-04-24T06:11:11;13.90;99.90
13850;DHT22;6995;52.618;13.488;2023-04-24T06:13:37;14.00;99.90
13850;DHT22;6995;52.618;13.488;2023-04-24T06:16:06;14.20;99.90
13850;DHT22;6995;52.618;13.488;2023-04-24T06:18:31;14.20;99.90
13850;DHT22;6995;52.618;13.488;2023-04-24T06:20:57;14.00;99.90
13850;DHT22;6995;52.618;13.488;2023-04-24T06:23:22;14.10;99.90
13850;DHT22;6995;52.618;13.488;2023-04-24T06:25:48;14.20;99.90
13850;DHT22;6995;52.618;13.488;2023-04-24T06:28:14;14.30;99.90
13850;DHT22;6995;52.618;13.488;2023-04-24T06:30:39;14.30;99.90
13850;DHT22;6995;52.618;13.488;2023-04-24T06:33:06;14.30;99.90
13850;DHT22;6995;52.618;13.488;2023-04-24T06:35:32;14.40;99.90
13850;DHT22;6995;52.618;13.488;2023-04-24T06:37:57;14.30;99.90
13850;DHT22;6995;52.618;13.488;2023-04-24T06:40:23;14.50;99.90
13850;DHT22;6995;52.618;13.488;2023-04-24T06:42:49;14.50;99.90
13850;DHT22;6995;52.618;13.488;2023-04-24T06:45:15;14.60;99.90
13850;DHT22;6995;52.618;13.488;2023-04-24T06:47:41;14.80;99.90
13850;DHT22;6995;52.618;13.488;2023-04-24T06:50:07;14.90;99.90
13850;DHT22;6995;52.618;13.488;2023-04-24T06:52:32;15.10;99.90
13850;DHT22;6995;52.618;13.488;2023-04-24T06:55:02;15.20;99.90
13850;DHT22;6995;52.618;13.488;2023-04-24T06:57:28;15.50;99.90
13850;DHT22;6995;52.618;13.488;2023-04-24T06:59:54;15.60;99.90
13850;DHT22;6995;52.618;13.488;2023-04-24T07:02:19;16.00;99.90
13850;DHT22;6995;52.618;13.488;2023-04-24T07:04:45;15.90;99.90
13850;DHT22;6995;52.618;13.488;2023-04-24T07:07:12;15.70;99.90
13850;DHT22;6995;52.618;13.488;2023-04-24T07:09:39;16.00;99.90
13850;DHT22;6995;52.618;13.488;2023-04-24T07:12:08;16.20;99.90
13850;DHT22;6995;52.618;13.488;2023-04-24T07:14:33;16.20;99.90
13850;DHT22;6995;52.618;13.488;2023-04-24T07:16:59;16.20;99.90
13850;DHT22;6995;52.618;13.488;2023-04-24T07:19:25;16.00;99.90
13850;DHT22;6995;52.618;13.488;2023-04-24T07:21:50;16.00;99.90
13850;DHT22;6995;52.618;13.488;2023-04-24T07:24:16;16.00;99.90
13850;DHT22;6995;52.618;13.488;2023-04-24T07:26:41;16.10;99.90
13850;DHT22;6995;52.618;13.488;2023-04-24T07:29:07;16.20;99.90
13850;DHT22;6995;52.618;13.488;2023-04-24T07:31:33;16.20;99.90
13850;DHT22;6995;52.618;13.488;2023-04-24T07:33:59;16.10;99.90
13850;DHT22;6995;52.618;13.488;2023-04-24T07:36:24;15.80;99.90
13850;DHT22;6995;52.618;13.488;2023-04-24T07:38:51;15.70;99.90
13850;DHT22;6995;52.618;13.488;2023-04-24T07:41:17;15.80;99.90
13850;DHT22;6995;52.618;13.488;2023-04-24T07:43:43;15.80;99.90
13850;DHT22;6995;52.618;13.488;2023-04-24T07:46:09;16.00;99.90
13850;DHT22;6995;52.618;13.488;2023-04-24T07:48:35;16.40;99.90
13850;DHT22;6995;52.618;13.488;2023-04-24T07:51:01;16.40;99.90
13850;DHT22;6995;52.618;13.488;2023-04-24T07:53:27;16.40;99.90
13850;DHT22;6995;52.618;13.488;2023-04-24T07:55:54;16.60;99.90
13850;DHT22;6995;52.618;13.488;2023-04-24T07:58:20;16.60;99.90
13850;DHT22;6995;52.618;13.488;2023-04-24T08:00:47;16.50;99.90
13850;DHT22;6995;52.618;13.488;2023-04-24T08:03:12;16.40;99.90
13850;DHT22;6995;52.618;13.488;2023-04-24T08:05:38;16.50;99.90
13850;DHT22;6995;52.618;13.488;2023-04-24T08:08:04;16.60;99.90
13850;DHT22;6995;52.618;13.488;2023-04-24T08:10:30;16.60;99.90
13850;DHT22;6995;52.618;13.488;2023-04-24T08:12:55;16.90;99.90
13850;DHT22;6995;52.618;13.488;2023-04-24T08:15:21;17.30;99.90
13850;DHT22;6995;52.618;13.488;2023-04-24T08:17:47;17.40;99.90
13850;DHT22;6995;52.618;13.488;2023-04-24T08:20:13;17.40;99.90
13850;DHT22;6995;52.618;13.488;2023-04-24T08:22:42;17.70;99.90
13850;DHT22;6995;52.618;13.488;2023-04-24T08:25:09;17.50;99.90
13850;DHT22;6995;52.618;13.488;2023-04-24T08:27:36;17.30;99.90
13850;DHT22;6995;52.618;13.488;2023-04-24T08:30:05;17.70;99.90
13850;DHT22;6995;52.618;13.488;2023-04-24T08:32:31;17.50;99.90
13850;DHT22;6995;52.618;13.488;2023-04-24T08:34:57;17.30;99.90
13850;DHT22;6995;52.618;13.488;2023-04-24T08:37:23;17.50;99.90
13850;DHT22;6995;52.618;13.488;2023-04-24T08:39:50;17.00;99.90
13850;DHT22;6995;52.618;13.488;2023-04-24T08:42:17;17.30;99.90
13850;DHT22;6995;52.618;13.488;2023-04-24T08:44:43;17.70;99.90
13850;DHT22;6995;52.618;13.488;2023-04-24T08:47:10;17.90;99.90
13850;DHT22;6995;52.618;13.488;2023-04-24T08:49:37;17.70;99.90
13850;DHT22;6995;52.618;13.488;2023-04-24T08:52:03;17.60;99.90
13850;DHT22;6995;52.618;13.488;2023-04-24T08:54:30;18.00;99.90
13850;DHT22;6995;52.618;13.488;2023-04-24T08:56:59;17.90;99.90
13850;DHT22;6995;52.618;13.488;2023-04-24T08:59:27;17.90;99.90
13850;DHT22;6995;52.618;13.488;2023-04-24T09:01:55;17.60;99.90
13850;DHT22;6995;52.618;13.488;2023-04-24T09:04:22;17.80;99.90
13850;DHT22;6995;52.618;13.488;2023-04-24T09:06:56;18.00;99.90
13850;DHT22;6995;52.618;13.488;2023-04-24T09:09:26;17.90;99.90
13850;DHT22;6995;52.618;13.488;2023-04-24T09:11:53;18.30;99.90
13850;DHT22;6995;52.618;13.488;2023-04-24T09:14:21;18.80;99.90
13850;DHT22;6995;52.618;13.488;2023-04-24T09:16:48;18.80;99.90
13850;DHT22;6995;52.618;13.488;2023-04-24T09:19:14;18.50;99.90
13850;DHT22;6995;52.618;13.488;2023-04-24T09:21:39;18.60;99.90
13850;DHT22;6995;52.618;13.488;2023-04-24T09:24:14;18.80;99.90
13850;DHT22;6995;52.618;13.488;2023-04-24T09:26:40;18.40;99.90
13850;DHT22;6995;52.618;13.488;2023-04-24T09:29:06;18.40;99.90
13850;DHT22;6995;52.618;13.488;2023-04-24T09:31:31;18.30;99.90
13850;DHT22;6995;52.618;13.488;2023-04-24T09:34:03;18.30;99.90
13850;DHT22;6995;52.618;13.488;2023-04-24T09:36:42;18.30;99.90
13850;DHT22;6995;52.618;13.488;2023-04-24T09:39:12;18.10;99.90
13850;DHT22;6995;52.618;13.488;2023-04-24T09:41:51;18.20;99.90
13850;DHT22;6995;52.618;13.488;2023-04-24T09:44:18;18.10;99.90
13850;DHT22;6995;52.618;13.488;2023-04-24T09:46:59;18.20;99.90
13850;DHT22;6995;52.618;13.488;2023-04-24T09:49:27;18.00;99.90
13850;DHT22;6995;52.618;13.488;2023-04-24T09:52:06;18.00;99.90
13850;DHT22;6995;52.618;13.488;2023-04-24T09:54:32;18.00;99.90
13850;DHT22;6995;52.618;13.488;2023-04-24T09:56:58;17.70;99.90
13850;DHT22;6995;52.618;13.488;2023-04-24T09:59:25;18.10;99.90
13850;DHT22;6995;52.618;13.488;2023-04-24T10:01:51;17.90;99.90
13850;DHT22;6995;52.618;13.488;2023-04-24T10:04:21;17.60;99.90
13850;DHT22;6995;52.618;13.488;2023-04-24T10:06:50;17.70;99.90
13850;DHT22;6995;52.618;13.488;2023-04-24T10:09:18;17.90;99.90
13850;DHT22;6995;52.618;13.488;2023-04-24T10:11:51;17.90;99.90
13850;DHT22;6995;52.618;13.488;2023-04-24T10:14:26;18.50;99.90
13850;DHT22;6995;52.618;13.488;2023-04-24T10:16:55;19.00;99.90
13850;DHT22;6995;52.618;13.488;2023-04-24T10:19:25;18.90;99.90
13850;DHT22;6995;52.618;13.488;2023-04-24T10:21:51;19.00;99.90
13850;DHT22;6995;52.618;13.488;2023-04-24T10:24:18;19.60;99.90
13850;DHT22;6995;52.618;13.488;2023-04-24T10:26:47;19.90;99.90
13850;DHT22;6995;52.618;13.488;2023-04-24T10:29:16;20.00;99.90
13850;DHT22;6995;52.618;13.488;2023-04-24T10:31:42;19.80;99.90
13850;DHT22;6995;52.618;13.488;2023-04-24T10:34:11;19.60;99.90
13850;DHT22;6995;52.618;13.488;2023-04-24T10:36:43;19.70;99.90
13850;DHT22;6995;52.618;13.488;2023-04-24T10:39:13;19.80;99.90
13850;DHT22;6995;52.618;13.488;2023-04-24T10:41:40;19.70;99.90
13850;DHT22;6995;52.618;13.488;2023-04-24T10:46:35;19.60;99.90
13850;DHT22;6995;52.618;13.488;2023-04-24T10:49:07;19.50;99.90
13850;DHT22;6995;52.618;13.488;2023-04-24T10:51:50;19.30;99.90
13850;DHT22;6995;52.618;13.488;2023-04-24T11:02:36;17.90;99.90
13850;DHT22;6995;52.618;13.488;2023-04-24T11:05:04;17.70;99.90
13850;DHT22;6995;52.618;13.488;2023-04-24T11:07:29;18.00;99.90
13850;DHT22;6995;52.618;13.488;2023-04-24T11:09:59;18.00;99.90
13850;DHT22;6995;52.618;13.488;2023-04-24T11:12:35;18.20;99.90
13850;DHT22;6995;52.618;13.488;2023-04-24T11:15:01;18.40;99.90
13850;DHT22;6995;52.618;13.488;2023-04-24T11:17:36;18.70;99.90
13850;DHT22;6995;52.618;13.488;2023-04-24T11:20:11;18.70;99.90
13850;DHT22;6995;52.618;13.488;2023-04-24T11:22:38;19.10;99.90
13850;DHT22;6995;52.618;13.488;2023-04-24T11:25:24;19.70;99.90
13850;DHT22;6995;52.618;13.488;2023-04-24T11:28:05;20.00;99.90
13850;DHT22;6995;52.618;13.488;2023-04-24T11:30:32;19.90;99.90
13850;DHT22;6995;52.618;13.488;2023-04-24T11:33:04;20.30;99.90
13850;DHT22;6995;52.618;13.488;2023-04-24T11:35:35;20.80;99.90
13850;DHT22;6995;52.618;13.488;2023-04-24T11:38:02;21.00;99.90
13850;DHT22;6995;52.618;13.488;2023-04-24T11:40:28;20.00;99.90
13850;DHT22;6995;52.618;13.488;2023-04-24T11:42:54;19.80;99.90
13850;DHT22;6995;52.618;13.488;2023-04-24T11:45:27;19.60;99.90
13850;DHT22;6995;52.618;13.488;2023-04-24T11:47:53;18.60;99.90
13850;DHT22;6995;52.618;13.488;2023-04-24T11:50:21;18.60;99.90
13850;DHT22;6995;52.618;13.488;2023-04-24T11:52:48;18.50;99.90
13850;DHT22;6995;52.618;13.488;2023-04-24T11:57:47;18.00;99.90
13850;DHT22;6995;52.618;13.488;2023-04-24T12:00:21;17.30;99.90
13850;DHT22;6995;52.618;13.488;2023-04-24T12:02:48;16.50;99.90
13850;DHT22;6995;52.618;13.488;2023-04-24T12:07:46;16.00;99.90
13850;DHT22;6995;52.618;13.488;2023-04-24T12:10:20;16.30;99.90
13850;DHT22;6995;52.618;13.488;2023-04-24T12:12:46;16.40;99.90
13850;DHT22;6995;52.618;13.488;2023-04-24T12:15:12;16.50;99.90
13850;DHT22;6995;52.618;13.488;2023-04-24T12:17:41;16.90;99.90
13850;DHT22;6995;52.618;13.488;2023-04-24T12:20:08;17.50;99.90
13850;DHT22;6995;52.618;13.488;2023-04-24T12:22:49;18.60;99.90
13850;DHT22;6995;52.618;13.488;2023-04-24T12:25:26;19.00;99.90
13850;DHT22;6995;52.618;13.488;2023-04-24T12:27:55;20.10;99.90
13850;DHT22;6995;52.618;13.488;2023-04-24T12:30:25;20.80;99.90
13850;DHT22;6995;52.618;13.488;2023-04-24T12:32:51;21.00;99.90
13850;DHT22;6995;52.618;13.488;2023-04-24T12:35:22;21.00;99.90
13850;DHT22;6995;52.618;13.488;2023-04-24T12:37:48;21.70;99.90
13850;DHT22;6995;52.618;13.488;2023-04-24T12:40:14;22.00;99.90
13850;DHT22;6995;52.618;13.488;2023-04-24T12:42:46;22.30;99.90
13850;DHT22;6995;52.618;13.488;2023-04-24T12:45:15;21.50;99.90
13850;DHT22;6995;52.618;13.488;2023-04-24T12:47:43;20.90;99.90
13850;DHT22;6995;52.618;13.488;2023-04-24T12:50:10;20.70;99.90
13850;DHT22;6995;52.618;13.488;2023-04-24T12:52:39;20.30;99.90
13850;DHT22;6995;52.618;13.488;2023-04-24T12:55:06;19.80;99.90
13850;DHT22;6995;52.618;13.488;2023-04-24T12:57:36;20.30;99.90
13850;DHT22;6995;52.618;13.488;2023-04-24T13:00:05;21.40;99.90
13850;DHT22;6995;52.618;13.488;2023-04-24T13:02:38;22.70;99.90
13850;DHT22;6995;52.618;13.488;2023-04-24T13:05:05;23.20;99.90
13850;DHT22;6995;52.618;13.488;2023-04-24T13:07:31;23.20;99.90
13850;DHT22;6995;52.618;13.488;2023-04-24T13:09:57;21.80;99.90
13850;DHT22;6995;52.618;13.488;2023-04-24T13:12:23;20.20;99.90
13850;DHT22;6995;52.618;13.488;2023-04-24T13:14:52;19.70;99.90
13850;DHT22;6995;52.618;13.488;2023-04-24T13:17:18;19.20;99.90
13850;DHT22;6995;52.618;13.488;2023-04-24T13:19:44;19.10;99.90
13850;DHT22;6995;52.618;13.488;2023-04-24T13:22:13;19.00;99.90
13850;DHT22;6995;52.618;13.488;2023-04-24T13:24:39;19.30;99.90
13850;DHT22;6995;52.618;13.488;2023-04-24T13:27:08;20.10;99.90
13850;DHT22;6995;52.618;13.488;2023-04-24T13:29:44;19.10;99.90
13850;DHT22;6995;52.618;13.488;2023-04-24T13:32:10;18.30;99.90
13850;DHT22;6995;52.618;13.488;2023-04-24T13:34:35;18.50;99.90
13850;DHT22;6995;52.618;13.488;2023-04-24T13:37:02;18.30;99.90
13850;DHT22;6995;52.618;13.488;2023-04-24T13:39:31;18.20;99.90
13850;DHT22;6995;52.618;13.488;2023-04-24T13:41:57;18.50;99.90
13850;DHT22;6995;52.618;13.488;2023-04-24T13:44:23;18.50;99.90
13850;DHT22;6995;52.618;13.488;2023-04-24T13:46:54;18.50;99.90
13850;DHT22;6995;52.618;13.488;2023-04-24T13:49:22;18.00;99.90
13850;DHT22;6995;52.618;13.488;2023-04-24T13:51:50;17.90;99.90
13850;DHT22;6995;52.618;13.488;2023-04-24T13:54:15;18.10;99.90
13850;DHT22;6995;52.618;13.488;2023-04-24T13:56:41;18.20;99.90
13850;DHT22;6995;52.618;13.488;2023-04-24T13:59:07;18.30;99.90
13850;DHT22;6995;52.618;13.488;2023-04-24T14:01:34;18.50;99.90
13850;DHT22;6995;52.618;13.488;2023-04-24T14:03:59;18.50;99.90
13850;DHT22;6995;52.618;13.488;2023-04-24T14:06:25;19.50;99.90
13850;DHT22;6995;52.618;13.488;2023-04-24T14:08:51;19.90;99.90
13850;DHT22;6995;52.618;13.488;2023-04-24T14:11:17;19.40;99.90
13850;DHT22;6995;52.618;13.488;2023-04-24T14:13:43;20.20;99.90
13850;DHT22;6995;52.618;13.488;2023-04-24T14:16:09;20.80;99.30
13850;DHT22;6995;52.618;13.488;2023-04-24T14:18:35;21.60;99.60
13850;DHT22;6995;52.618;13.488;2023-04-24T14:21:02;20.70;96.10
13850;DHT22;6995;52.618;13.488;2023-04-24T14:23:28;20.00;96.80
13850;DHT22;6995;52.618;13.488;2023-04-24T14:25:54;19.50;99.90
13850;DHT22;6995;52.618;13.488;2023-04-24T14:28:20;18.70;99.90
13850;DHT22;6995;52.618;13.488;2023-04-24T14:30:47;19.90;99.90
13850;DHT22;6995;52.618;13.488;2023-04-24T14:33:12;20.10;97.80
13850;DHT22;6995;52.618;13.488;2023-04-24T14:35:39;19.20;98.80
13850;DHT22;6995;52.618;13.488;2023-04-24T14:38:05;19.50;99.90
13850;DHT22;6995;52.618;13.488;2023-04-24T14:40:31;20.30;97.80
13850;DHT22;6995;52.618;13.488;2023-04-24T14:42:58;21.70;93.00
13850;DHT22;6995;52.618;13.488;2023-04-24T14:45:24;22.20;88.50
13850;DHT22;6995;52.618;13.488;2023-04-24T14:47:50;22.40;86.80
13850;DHT22;6995;52.618;13.488;2023-04-24T14:50:15;21.40;84.00
13850;DHT22;6995;52.618;13.488;2023-04-24T14:52:41;21.70;86.70
13850;DHT22;6995;52.618;13.488;2023-04-24T14:55:07;20.60;87.70
13850;DHT22;6995;52.618;13.488;2023-04-24T14:57:33;20.00;90.50
13850;DHT22;6995;52.618;13.488;2023-04-24T14:59:59;19.40;89.90
13850;DHT22;6995;52.618;13.488;2023-04-24T15:02:25;20.60;92.70
13850;DHT22;6995;52.618;13.488;2023-04-24T15:04:51;21.40;85.60
13850;DHT22;6995;52.618;13.488;2023-04-24T15:07:17;22.00;84.60
13850;DHT22;6995;52.618;13.488;2023-04-24T15:09:42;20.70;85.20
13850;DHT22;6995;52.618;13.488;2023-04-24T15:12:08;20.70;84.30
13850;DHT22;6995;52.618;13.488;2023-04-24T15:14:35;20.20;82.70
13850;DHT22;6995;52.618;13.488;2023-04-24T15:17:00;19.20;87.10
13850;DHT22;6995;52.618;13.488;2023-04-24T15:19:26;18.60;90.90
13850;DHT22;6995;52.618;13.488;2023-04-24T15:21:52;18.40;93.20
13850;DHT22;6995;52.618;13.488;2023-04-24T15:24:17;18.90;92.20
13850;DHT22;6995;52.618;13.488;2023-04-24T15:26:43;19.10;92.30
13850;DHT22;6995;52.618;13.488;2023-04-24T15:29:08;18.60;93.40
13850;DHT22;6995;52.618;13.488;2023-04-24T15:31:34;18.50;95.50
13850;DHT22;6995;52.618;13.488;2023-04-24T15:34:04;18.40;96.20
13850;DHT22;6995;52.618;13.488;2023-04-24T15:36:30;18.10;95.80
13850;DHT22;6995;52.618;13.488;2023-04-24T15:38:56;18.80;98.30
13850;DHT22;6995;52.618;13.488;2023-04-24T15:41:22;19.80;90.70
13850;DHT22;6995;52.618;13.488;2023-04-24T15:43:47;19.40;86.70
13850;DHT22;6995;52.618;13.488;2023-04-24T15:46:13;19.10;90.00
13850;DHT22;6995;52.618;13.488;2023-04-24T15:48:38;18.10;93.60